Time;durP1;ratioP1;P1;durP2;ratioP2;P2;SDS_P1;SDS_P2;PMS_P1;PMS_P2;Temp;Humidity;BMP_temperature;BMP_pressure;BME280_temperature;BME280_humidity;BME280_pressure;Samples;Min_cycle;Max_cycle;Signal;HPM_P1;HPM_P2
2024/02/25 00:01:15;;;;;;;3.03;1.83;;;22.30;51.00;;;;;;5064153;28;20042;-66
2024/02/25 00:03:41;;;;;;;4.10;1.92;;;22.30;51.00;;;;;;5066876;28;20118;-66
2024/02/25 00:06:06;;;;;;;2.63;1.85;;;22.30;51.00;;;;;;5080202;28;20155;-67
2024/02/25 00:08:32;;;;;;;3.33;1.88;;;22.30;51.00;;;;;;5082266;28;20145;-68
2024/02/25 00:11:00;;;;;;;3.63;1.90;;;22.20;51.00;;;;;;5066903;28;20033;-67
2024/02/25 00:13:26;;;;;;;2.75;1.85;;;22.20;51.00;;;;;;5081557;28;20496;-67
2024/02/25 00:15:52;;;;;;;2.45;1.70;;;22.20;51.00;;;;;;5082433;28;20039;-66
2024/02/25 00:18:17;;;;;;;2.53;1.60;;;22.20;51.00;;;;;;5081808;28;20111;-66
2024/02/25 00:20:43;;;;;;;3.40;1.73;;;22.20;51.00;;;;;;5079425;28;20039;-66
2024/02/25 00:23:09;;;;;;;2.80;1.67;;;22.10;50.90;;;;;;5097761;28;20020;-66
2024/02/25 00:25:37;;;;;;;2.92;1.70;;;22.10;51.10;;;;;;5079444;28;20016;-66
2024/02/25 00:28:04;;;;;;;3.30;2.03;;;22.10;51.00;;;;;;5082299;28;20024;-66
2024/02/25 00:30:29;;;;;;;3.42;1.88;;;22.10;51.00;;;;;;5081062;28;20454;-66
2024/02/25 00:32:55;;;;;;;2.60;1.77;;;22.10;51.00;;;;;;5079341;28;20059;-66
2024/02/25 00:35:21;;;;;;;2.72;1.40;;;22.10;51.00;;;;;;5079612;28;20032;-66
2024/02/25 00:37:47;;;;;;;2.60;1.60;;;22.10;51.00;;;;;;5081198;28;20454;-66
2024/02/25 00:40:13;;;;;;;3.30;2.10;;;22.10;51.00;;;;;;5083045;28;20028;-66
2024/02/25 00:42:39;;;;;;;2.80;1.67;;;22.10;51.00;;;;;;5082484;28;20020;-66
2024/02/25 00:45:05;;;;;;;2.95;1.70;;;22.10;51.00;;;;;;5082489;28;20032;-66
2024/02/25 00:47:32;;;;;;;2.70;1.63;;;22.00;50.90;;;;;;5081781;28;20032;-66
2024/02/25 00:49:57;;;;;;;3.00;1.65;;;22.00;50.90;;;;;;5079643;28;20028;-66
2024/02/25 00:52:25;;;;;;;2.40;1.67;;;22.00;50.90;;;;;;5078672;28;20050;-66
2024/02/25 00:54:50;;;;;;;2.15;1.40;;;22.00;50.90;;;;;;5080587;28;20142;-67
2024/02/25 00:57:16;;;;;;;2.95;1.63;;;21.90;50.90;;;;;;5081104;28;20116;-66
2024/02/25 00:59:42;;;;;;;2.65;1.60;;;21.90;50.90;;;;;;5064480;28;20047;-66
2024/02/25 01:02:08;;;;;;;2.58;1.55;;;21.90;50.90;;;;;;5081206;28;20111;-66
2024/02/25 01:04:33;;;;;;;3.30;1.58;;;21.90;50.80;;;;;;5080152;28;20070;-66
2024/02/25 01:06:59;;;;;;;2.33;1.30;;;21.90;50.80;;;;;;5079849;28;20419;-66
2024/02/25 01:09:24;;;;;;;2.45;1.42;;;21.90;50.90;;;;;;5079782;28;20032;-66
2024/02/25 01:11:51;;;;;;;2.42;1.50;;;21.80;50.80;;;;;;5082094;28;20024;-66
2024/02/25 01:14:18;;;;;;;2.55;1.50;;;21.80;50.80;;;;;;5082090;28;20023;-66
2024/02/25 01:16:44;;;;;;;2.20;1.30;;;21.80;50.80;;;;;;5078256;28;20021;-62
2024/02/25 01:19:09;;;;;;;2.60;1.55;;;21.80;50.80;;;;;;5080977;28;20503;-63
2024/02/25 01:21:35;;;;;;;2.15;1.50;;;21.80;50.80;;;;;;5078069;28;20099;-64
2024/02/25 01:24:02;;;;;;;1.77;1.30;;;21.80;50.80;;;;;;5061962;28;20031;-61
2024/02/25 01:26:28;;;;;;;2.30;1.33;;;21.70;50.80;;;;;;5078882;28;20032;-63
2024/02/25 01:28:54;;;;;;;2.05;1.20;;;21.70;50.80;;;;;;5082723;28;20028;-63
2024/02/25 01:31:21;;;;;;;2.88;1.58;;;21.70;50.80;;;;;;5080012;28;20032;-63
2024/02/25 01:33:47;;;;;;;2.38;1.50;;;21.70;50.80;;;;;;5080970;28;20555;-61
2024/02/25 01:36:12;;;;;;;2.83;1.20;;;21.70;50.80;;;;;;5080935;28;20032;-63
2024/02/25 01:38:38;;;;;;;1.98;1.40;;;21.70;50.80;;;;;;5080804;28;20039;-65
2024/02/25 01:41:04;;;;;;;2.03;1.30;;;21.60;50.80;;;;;;5080136;28;20021;-64
2024/02/25 01:43:30;;;;;;;2.33;1.45;;;21.60;50.80;;;;;;5080857;28;20031;-63
2024/02/25 01:45:55;;;;;;;2.30;1.40;;;21.60;50.80;;;;;;5082282;28;20025;-64
2024/02/25 01:48:21;;;;;;;2.20;1.40;;;21.60;50.80;;;;;;5078002;28;20028;-65
2024/02/25 01:50:48;;;;;;;2.17;1.20;;;21.60;50.80;;;;;;5078216;28;20036;-64
2024/02/25 01:53:16;;;;;;;1.70;1.20;;;21.60;50.80;;;;;;5060679;28;20055;-64
2024/02/25 01:55:45;;;;;;;2.10;1.38;;;21.60;50.80;;;;;;5077418;28;20024;-63
2024/02/25 01:58:12;;;;;;;2.45;1.40;;;21.60;50.80;;;;;;5063129;28;20123;-64
2024/02/25 02:00:39;;;;;;;2.22;1.38;;;21.50;50.80;;;;;;5080233;28;20025;-64
2024/02/25 02:03:04;;;;;;;2.10;1.40;;;21.50;50.80;;;;;;5078373;28;20025;-63
2024/02/25 02:05:30;;;;;;;2.95;1.10;;;21.50;50.80;;;;;;5078393;28;20550;-64
2024/02/25 02:07:56;;;;;;;2.13;1.10;;;21.50;50.80;;;;;;5079173;28;20173;-63
2024/02/25 02:10:22;;;;;;;2.35;1.20;;;21.50;50.80;;;;;;5079249;28;20491;-63
2024/02/25 02:12:48;;;;;;;1.65;1.20;;;21.50;50.80;;;;;;5093948;28;20031;-64
2024/02/25 02:15:15;;;;;;;1.58;1.10;;;21.50;50.80;;;;;;5079722;28;20516;-64
2024/02/25 02:17:42;;;;;;;1.75;1.20;;;21.40;50.80;;;;;;5080846;28;20033;-63
2024/02/25 02:20:12;;;;;;;1.92;1.30;;;21.40;50.80;;;;;;5075723;28;20411;-64
2024/02/25 02:22:39;;;;;;;2.47;1.38;;;21.40;50.80;;;;;;5080946;28;20021;-64
2024/02/25 02:25:07;;;;;;;1.95;1.13;;;21.40;50.80;;;;;;5077047;28;20021;-66
2024/02/25 02:27:35;;;;;;;2.17;1.30;;;21.40;50.80;;;;;;5077675;28;20035;-66
2024/02/25 02:30:01;;;;;;;1.83;1.20;;;21.40;50.90;;;;;;5080315;28;20028;-66
2024/02/25 02:32:28;;;;;;;1.95;1.20;;;21.30;50.80;;;;;;5079891;28;20058;-66
2024/02/25 02:34:53;;;;;;;2.38;1.20;;;21.40;50.90;;;;;;5078549;28;20024;-66
2024/02/25 02:37:19;;;;;;;2.60;1.10;;;21.40;50.90;;;;;;5077347;28;20472;-66
2024/02/25 02:39:44;;;;;;;2.08;1.08;;;21.30;50.80;;;;;;5079159;28;20393;-66
2024/02/25 02:42:11;;;;;;;1.83;1.10;;;21.30;50.80;;;;;;5079632;28;20035;-66
2024/02/25 02:44:37;;;;;;;1.55;1.00;;;21.30;50.90;;;;;;5081508;28;20052;-66
2024/02/25 02:47:03;;;;;;;1.98;1.20;;;21.30;50.90;;;;;;5079325;28;20052;-64
2024/02/25 02:49:29;;;;;;;1.73;1.00;;;21.30;50.90;;;;;;5080352;28;20085;-63
2024/02/25 02:51:58;;;;;;;2.15;1.35;;;21.30;50.90;;;;;;5075201;28;20024;-63
2024/02/25 02:54:25;;;;;;;;;;;21.30;50.90;;;;;;5081160;28;20052;-63
2024/02/25 02:56:50;;;;;;;1.48;1.10;;;21.20;50.80;;;;;;5078633;28;19912;-63
2024/02/25 02:59:16;;;;;;;2.20;1.20;;;21.20;50.90;;;;;;5081197;28;20032;-63
2024/02/25 03:01:41;;;;;;;1.67;1.00;;;21.20;50.90;;;;;;5078655;28;20093;-64
2024/02/25 03:04:08;;;;;;;1.77;1.20;;;21.20;50.90;;;;;;5078637;28;20032;-64
2024/02/25 03:06:33;;;;;;;1.27;0.98;;;21.20;50.90;;;;;;5076513;28;20127;-64
2024/02/25 03:08:59;;;;;;;1.83;1.20;;;21.20;50.90;;;;;;5078904;28;20103;-64
2024/02/25 03:11:25;;;;;;;1.98;1.15;;;21.20;51.40;;;;;;5081173;28;20111;-65
2024/02/25 03:13:51;;;;;;;1.90;1.10;;;21.20;51.00;;;;;;5078834;28;20028;-64
2024/02/25 03:16:16;;;;;;;1.63;1.15;;;21.10;50.90;;;;;;5062390;28;20392;-63
2024/02/25 03:18:42;;;;;;;2.00;1.05;;;21.20;51.00;;;;;;5078468;28;20032;-64
2024/02/25 03:21:08;;;;;;;1.60;1.10;;;21.10;50.90;;;;;;5076727;28;20032;-64
2024/02/25 03:23:33;;;;;;;1.92;1.15;;;21.10;51.00;;;;;;5079171;28;20393;-64
2024/02/25 03:25:59;;;;;;;1.55;1.10;;;21.10;51.00;;;;;;5078718;28;20036;-64
2024/02/25 03:28:25;;;;;;;1.73;1.10;;;21.10;51.00;;;;;;5079223;28;20388;-64
2024/02/25 03:30:51;;;;;;;1.70;1.02;;;21.10;51.00;;;;;;5080198;28;20082;-63
2024/02/25 03:33:17;;;;;;;2.17;1.20;;;21.10;51.00;;;;;;5075900;28;20032;-64
2024/02/25 03:35:42;;;;;;;1.63;0.98;;;21.10;51.00;;;;;;5075862;28;20028;-61
2024/02/25 03:38:08;;;;;;;2.05;1.20;;;21.10;51.00;;;;;;5079133;28;20524;-62
2024/02/25 03:40:33;;;;;;;1.60;1.08;;;21.00;51.00;;;;;;5078418;28;20035;-62
2024/02/25 03:42:59;;;;;;;1.80;1.10;;;21.00;51.00;;;;;;5078231;28;20031;-63
2024/02/25 03:45:24;;;;;;;1.90;1.13;;;21.00;51.00;;;;;;5061383;28;20020;-64
2024/02/25 03:47:50;;;;;;;1.17;0.93;;;21.00;51.00;;;;;;5079460;28;20047;-62
2024/02/25 03:50:16;;;;;;;1.70;1.02;;;21.00;51.00;;;;;;5078428;28;20229;-62
2024/02/25 03:52:42;;;;;;;1.45;1.05;;;21.00;51.00;;;;;;5075904;28;20024;-63
2024/02/25 03:55:08;;;;;;;2.00;1.00;;;21.00;51.00;;;;;;5080550;28;20032;-66
2024/02/25 03:57:34;;;;;;;1.60;1.00;;;21.00;51.10;;;;;;5079338;28;20043;-66
2024/02/25 03:59:59;;;;;;;1.35;0.90;;;21.00;51.00;;;;;;5076774;28;20052;-66
2024/02/25 04:02:25;;;;;;;1.20;0.93;;;21.00;51.10;;;;;;5078014;28;20096;-66
2024/02/25 04:04:51;;;;;;;2.55;1.35;;;20.90;51.00;;;;;;5080569;28;20039;-66
2024/02/25 04:07:17;;;;;;;1.90;1.00;;;20.90;51.00;;;;;;5076619;28;20029;-63
2024/02/25 04:09:43;;;;;;;1.48;1.00;;;20.90;51.10;;;;;;5077676;28;20115;-63
2024/02/25 04:12:08;;;;;;;1.92;1.25;;;20.90;51.10;;;;;;5078653;28;20083;-63
2024/02/25 04:14:35;;;;;;;1.45;0.90;;;20.90;51.10;;;;;;5079536;28;20043;-63
2024/02/25 04:17:01;;;;;;;1.80;1.10;;;20.90;51.10;;;;;;5077812;28;20046;-64
2024/02/25 04:19:26;;;;;;;1.42;1.00;;;20.90;51.10;;;;;;5078949;28;20131;-63
2024/02/25 04:21:52;;;;;;;2.60;1.10;;;20.90;51.10;;;;;;5077736;28;20448;-63
2024/02/25 04:24:18;;;;;;;1.27;0.90;;;20.90;51.10;;;;;;5078245;28;20643;-64
2024/02/25 04:26:45;;;;;;;1.50;1.00;;;20.90;51.10;;;;;;5078353;28;20016;-63
2024/02/25 04:29:11;;;;;;;1.20;0.93;;;20.90;51.20;;;;;;5079361;28;20020;-64
2024/02/25 04:31:45;;;;;;;1.42;1.00;;;20.90;51.10;;;;;;5076510;28;20178;-63
2024/02/25 04:34:12;;;;;;;1.50;0.93;;;20.90;51.10;;;;;;5060339;28;20036;-63
2024/02/25 04:36:38;;;;;;;1.30;0.90;;;20.80;51.10;;;;;;5081087;28;20027;-63
2024/02/25 04:39:03;;;;;;;1.10;0.90;;;20.80;51.10;;;;;;5082143;28;20032;-63
2024/02/25 04:41:29;;;;;;;1.65;1.05;;;20.80;51.10;;;;;;5081934;28;20427;-64
2024/02/25 04:43:55;;;;;;;1.25;0.90;;;20.80;51.10;;;;;;5082843;28;20035;-63
2024/02/25 04:46:20;;;;;;;1.13;0.85;;;20.80;51.20;;;;;;5082070;28;20024;-66
2024/02/25 04:48:48;;;;;;;1.60;1.10;;;20.80;51.10;;;;;;5080594;28;20028;-66
2024/02/25 04:51:15;;;;;;;1.33;0.90;;;20.80;51.20;;;;;;5062632;28;20480;-68
2024/02/25 04:53:40;;;;;;;1.50;0.98;;;20.80;51.20;;;;;;5081112;28;20027;-67
2024/02/25 04:56:06;;;;;;;1.30;0.90;;;20.80;51.20;;;;;;5080992;28;20130;-68
2024/02/25 04:58:33;;;;;;;0.82;0.73;;;20.80;51.20;;;;;;5083122;28;20041;-67
2024/02/25 05:00:58;;;;;;;1.50;0.93;;;20.80;51.20;;;;;;5082477;28;20032;-67
2024/02/25 05:03:24;;;;;;;1.13;0.90;;;20.70;51.20;;;;;;5080760;28;20115;-66
2024/02/25 05:05:50;;;;;;;1.20;0.93;;;20.80;51.20;;;;;;5078042;28;20033;-66
2024/02/25 05:08:16;;;;;;;1.02;0.80;;;20.80;51.20;;;;;;5080264;28;20036;-66
2024/02/25 05:10:41;;;;;;;1.25;0.85;;;20.80;51.20;;;;;;5080361;28;20024;-66
2024/02/25 05:13:07;;;;;;;1.30;0.90;;;20.70;51.20;;;;;;5081784;28;20050;-66
2024/02/25 05:15:33;;;;;;;1.50;0.98;;;20.70;51.20;;;;;;5064290;28;20031;-66
2024/02/25 05:18:00;;;;;;;1.13;0.90;;;20.70;51.20;;;;;;5081951;28;20043;-66
2024/02/25 05:20:26;;;;;;;1.48;1.10;;;20.70;51.30;;;;;;5081478;28;20030;-66
2024/02/25 05:22:52;;;;;;;1.35;0.85;;;20.70;51.20;;;;;;5079187;28;20610;-66
2024/02/25 05:25:18;;;;;;;1.23;0.90;;;20.70;51.20;;;;;;5078937;28;20630;-66
2024/02/25 05:27:43;;;;;;;1.10;0.90;;;20.70;51.30;;;;;;5080359;28;20214;-66
2024/02/25 05:30:10;;;;;;;1.52;0.90;;;20.70;51.30;;;;;;5083063;28;20519;-66
2024/02/25 05:32:36;;;;;;;1.50;1.00;;;20.70;51.30;;;;;;5083925;28;20040;-66
2024/02/25 05:35:03;;;;;;;1.27;0.90;;;20.70;51.30;;;;;;5081740;28;20456;-66
2024/02/25 05:37:28;;;;;;;1.02;0.85;;;20.70;51.30;;;;;;5079832;28;20150;-66
2024/02/25 05:39:54;;;;;;;1.10;0.90;;;20.60;51.30;;;;;;5078375;28;20439;-66
2024/02/25 05:42:19;;;;;;;1.52;0.85;;;20.70;51.30;;;;;;5081080;28;20074;-66
2024/02/25 05:44:45;;;;;;;1.40;1.00;;;20.70;51.40;;;;;;5080500;28;20025;-66
2024/02/25 05:47:10;;;;;;;1.50;0.90;;;20.60;51.30;;;;;;5079387;28;20016;-66
2024/02/25 05:49:39;;;;;;;1.70;0.95;;;20.60;51.40;;;;;;5080070;28;20942;-66
2024/02/25 05:52:05;;;;;;;0.80;0.70;;;20.60;51.30;;;;;;5079922;28;20028;-66
2024/02/25 05:54:31;;;;;;;0.82;0.73;;;20.60;51.30;;;;;;5079319;28;20086;-66
2024/02/25 05:56:56;;;;;;;1.50;0.95;;;20.60;51.30;;;;;;5078737;28;20131;-66
2024/02/25 05:59:22;;;;;;;1.00;0.80;;;20.60;51.40;;;;;;5081452;28;20043;-67
2024/02/25 06:01:48;;;;;;;1.23;0.90;;;20.60;51.40;;;;;;5079161;28;20031;-67
2024/02/25 06:04:16;;;;;;;1.20;0.90;;;20.60;51.40;;;;;;5077376;28;20532;-67
2024/02/25 06:06:43;;;;;;;1.50;1.00;;;20.60;51.40;;;;;;5076871;28;20028;-66
2024/02/25 06:09:10;;;;;;;1.00;0.80;;;20.60;51.40;;;;;;5077990;28;20020;-66
2024/02/25 06:11:37;;;;;;;1.00;0.80;;;20.60;51.40;;;;;;5078955;28;20071;-66
2024/02/25 06:14:02;;;;;;;1.20;0.90;;;20.60;51.40;;;;;;5077297;28;20029;-66
2024/02/25 06:16:32;;;;;;;1.30;0.85;;;20.60;51.50;;;;;;5076997;28;20111;-66
2024/02/25 06:18:58;;;;;;;1.20;0.80;;;20.60;51.50;;;;;;5077835;28;20484;-66
2024/02/25 06:21:24;;;;;;;1.00;0.80;;;20.50;51.40;;;;;;5078609;28;20031;-66
2024/02/25 06:23:50;;;;;;;1.45;1.00;;;20.50;51.40;;;;;;5060157;28;20515;-66
2024/02/25 06:26:16;;;;;;;0.90;0.80;;;20.50;51.40;;;;;;5079579;28;20050;-62
2024/02/25 06:28:42;;;;;;;0.90;0.70;;;20.50;51.40;;;;;;5080928;28;20104;-62
2024/02/25 06:31:08;;;;;;;0.77;0.70;;;20.50;51.40;;;;;;5079763;28;20034;-62
2024/02/25 06:33:34;;;;;;;1.17;0.82;;;20.50;51.50;;;;;;5079666;28;20116;-62
2024/02/25 06:36:00;;;;;;;1.00;0.90;;;20.50;51.50;;;;;;5078214;28;20032;-63
2024/02/25 06:38:26;;;;;;;1.02;0.80;;;20.50;51.50;;;;;;5079152;28;20027;-62
2024/02/25 06:40:52;;;;;;;1.20;0.80;;;20.50;51.50;;;;;;5079453;28;20196;-62
2024/02/25 06:43:17;;;;;;;1.10;0.90;;;20.50;51.50;;;;;;5080999;28;20476;-62
2024/02/25 06:45:43;;;;;;;1.60;0.90;;;20.50;51.50;;;;;;5078379;28;20450;-62
2024/02/25 06:48:08;;;;;;;0.90;0.73;;;20.50;51.50;;;;;;5077762;28;20020;-63
2024/02/25 06:50:34;;;;;;;0.95;0.80;;;20.50;51.50;;;;;;5079915;28;20020;-62
2024/02/25 06:53:00;;;;;;;0.88;0.80;;;20.50;51.50;;;;;;5076821;28;20024;-63
2024/02/25 06:55:26;;;;;;;1.38;0.85;;;20.50;51.50;;;;;;5079123;28;20031;-64
2024/02/25 06:57:52;;;;;;;1.25;1.00;;;20.50;51.50;;;;;;5079131;28;20030;-63
2024/02/25 07:00:18;;;;;;;1.35;1.10;;;20.50;51.50;;;;;;5079002;28;20050;-62
2024/02/25 07:02:44;;;;;;;0.73;0.73;;;20.50;51.50;;;;;;5080305;28;20580;-62
2024/02/25 07:05:09;;;;;;;0.70;0.70;;;20.40;51.50;;;;;;5078955;28;20020;-62
2024/02/25 07:07:38;;;;;;;1.00;0.75;;;20.40;51.50;;;;;;5077261;28;20024;-66
2024/02/25 07:10:04;;;;;;;0.98;0.88;;;20.40;51.50;;;;;;5078543;28;20059;-66
2024/02/25 07:12:30;;;;;;;1.50;1.10;;;20.40;51.60;;;;;;5081524;28;20091;-66
2024/02/25 07:14:55;;;;;;;1.08;0.70;;;20.40;51.60;;;;;;5078267;28;20083;-66
2024/02/25 07:17:21;;;;;;;1.13;0.80;;;20.40;51.60;;;;;;5059260;28;20048;-66
2024/02/25 07:19:47;;;;;;;0.95;0.80;;;20.40;51.60;;;;;;5079494;28;20485;-66
2024/02/25 07:22:13;;;;;;;1.10;0.80;;;20.40;51.60;;;;;;5093372;28;20025;-65
2024/02/25 07:24:41;;;;;;;1.02;0.80;;;20.40;51.60;;;;;;5078362;28;20024;-65
2024/02/25 07:27:08;;;;;;;1.15;0.90;;;20.40;51.60;;;;;;5059261;28;20108;-63
2024/02/25 07:29:34;;;;;;;1.27;0.80;;;20.40;51.60;;;;;;5080525;28;20114;-62
2024/02/25 07:31:59;;;;;;;1.17;0.85;;;20.40;51.60;;;;;;5063203;28;20028;-61
2024/02/25 07:34:25;;;;;;;1.33;0.80;;;20.40;51.60;;;;;;5077006;28;20078;-62
2024/02/25 07:36:51;;;;;;;1.00;0.80;;;20.40;51.60;;;;;;5078451;28;20539;-66
2024/02/25 07:39:16;;;;;;;1.20;0.80;;;20.40;51.70;;;;;;5075844;28;20051;-66
2024/02/25 07:41:44;;;;;;;1.20;0.80;;;20.40;51.60;;;;;;5078723;28;20037;-65
2024/02/25 07:44:13;;;;;;;1.35;0.77;;;20.40;51.70;;;;;;5078589;28;20413;-65
2024/02/25 07:46:38;;;;;;;0.90;0.80;;;20.40;51.70;;;;;;5095789;28;20017;-65
2024/02/25 07:49:04;;;;;;;1.00;0.77;;;20.30;51.70;;;;;;5078911;28;20043;-65
2024/02/25 07:51:36;;;;;;;1.05;0.80;;;20.30;51.60;;;;;;5060033;28;20033;-65
2024/02/25 07:54:03;;;;;;;1.10;0.70;;;20.30;51.60;;;;;;5077682;28;20024;-65
2024/02/25 07:56:28;;;;;;;0.95;0.80;;;20.30;51.70;;;;;;5077918;28;20392;-65
2024/02/25 07:58:54;;;;;;;0.80;0.70;;;20.30;51.60;;;;;;5092334;28;20025;-65
2024/02/25 08:01:20;;;;;;;1.30;0.80;;;20.30;51.70;;;;;;5078145;28;20506;-65
2024/02/25 08:03:45;;;;;;;0.95;0.80;;;20.30;51.70;;;;;;5078797;28;20055;-65
2024/02/25 08:06:12;;;;;;;2.20;0.73;;;20.30;51.70;;;;;;5077324;28;20075;-65
2024/02/25 08:08:38;;;;;;;0.85;0.70;;;20.30;51.70;;;;;;5075935;28;20554;-66
2024/02/25 08:11:04;;;;;;;0.77;0.70;;;20.30;51.70;;;;;;5080964;28;20085;-66
2024/02/25 08:13:30;;;;;;;1.15;0.80;;;20.30;51.70;;;;;;5083469;28;20032;-65
2024/02/25 08:15:55;;;;;;;1.08;0.80;;;20.30;51.70;;;;;;5082284;28;20066;-65
2024/02/25 08:18:21;;;;;;;1.25;0.77;;;20.30;51.70;;;;;;5082681;28;20105;-67
2024/02/25 08:20:46;;;;;;;0.90;0.75;;;20.30;51.70;;;;;;5081118;28;20999;-65
2024/02/25 08:23:12;;;;;;;0.95;0.70;;;20.30;51.80;;;;;;5081205;28;20021;-66
2024/02/25 08:25:38;;;;;;;0.95;0.70;;;20.30;51.80;;;;;;5083828;28;20387;-66
2024/02/25 08:28:04;;;;;;;1.13;0.82;;;20.30;51.80;;;;;;5083293;28;20105;-66
2024/02/25 08:30:29;;;;;;;1.05;0.88;;;20.30;51.80;;;;;;5098641;28;20020;-66
2024/02/25 08:32:55;;;;;;;1.15;0.95;;;20.30;52.30;;;;;;5080710;28;20039;-66
2024/02/25 08:35:21;;;;;;;1.20;0.90;;;20.30;51.80;;;;;;5082535;28;20024;-66
2024/02/25 08:37:47;;;;;;;1.20;0.90;;;20.20;51.80;;;;;;5082239;28;20055;-66
2024/02/25 08:40:13;;;;;;;0.90;0.70;;;20.20;51.80;;;;;;5080987;28;20036;-66
2024/02/25 08:42:39;;;;;;;0.93;0.77;;;20.20;51.80;;;;;;5082520;28;20452;-66
2024/02/25 08:45:05;;;;;;;1.00;0.80;;;20.20;51.90;;;;;;5082322;28;20028;-65
2024/02/25 08:47:31;;;;;;;0.93;0.77;;;20.20;51.90;;;;;;5083268;28;20028;-66
2024/02/25 08:49:57;;;;;;;1.02;0.90;;;20.20;51.90;;;;;;5082543;28;20108;-66
2024/02/25 08:52:23;;;;;;;1.65;0.80;;;20.20;51.90;;;;;;5081314;28;20074;-66
2024/02/25 08:54:49;;;;;;;1.42;1.00;;;20.20;51.90;;;;;;5081245;28;20040;-66
2024/02/25 08:57:16;;;;;;;1.02;0.90;;;20.20;51.90;;;;;;5083100;28;20036;-67
2024/02/25 08:59:41;;;;;;;2.10;0.93;;;20.20;51.90;;;;;;5080481;28;20020;-66
2024/02/25 09:02:07;;;;;;;1.05;0.88;;;20.20;51.90;;;;;;5080518;28;20032;-67
2024/02/25 09:04:33;;;;;;;1.38;0.90;;;20.20;52.00;;;;;;5082418;28;20024;-67
2024/02/25 09:07:00;;;;;;;1.25;0.80;;;20.20;52.00;;;;;;5079878;28;20492;-67
2024/02/25 09:09:29;;;;;;;1.52;0.90;;;20.20;52.00;;;;;;5079656;28;20484;-66
2024/02/25 09:11:55;;;;;;;1.48;1.02;;;20.20;52.50;;;;;;5063332;28;20143;-66
2024/02/25 09:14:20;;;;;;;1.10;0.90;;;20.20;52.00;;;;;;5082658;28;20103;-67
2024/02/25 09:16:46;;;;;;;0.88;0.80;;;20.30;52.10;;;;;;5081738;28;20021;-66
2024/02/25 09:19:13;;;;;;;0.90;0.80;;;20.20;52.10;;;;;;5062732;28;20062;-66
2024/02/25 09:21:38;;;;;;;0.90;0.80;;;20.20;52.10;;;;;;5077485;28;20038;-67
2024/02/25 09:24:04;;;;;;;1.30;0.90;;;20.20;52.10;;;;;;5078448;28;20028;-66
2024/02/25 09:26:30;;;;;;;1.77;0.90;;;20.20;52.10;;;;;;5080665;28;20127;-66
2024/02/25 09:28:56;;;;;;;1.50;0.90;;;20.20;52.10;;;;;;5080171;28;20528;-67
2024/02/25 09:31:21;;;;;;;1.10;0.90;;;20.20;52.20;;;;;;5080853;28;20032;-66
2024/02/25 09:33:50;;;;;;;1.52;1.00;;;20.20;52.20;;;;;;5080356;28;20044;-67
2024/02/25 09:36:22;;;;;;;1.80;0.95;;;20.20;52.30;;;;;;5081770;28;20408;-67
2024/02/25 09:38:52;;;;;;;1.42;1.05;;;20.20;52.30;;;;;;5077347;28;20025;-66
2024/02/25 09:41:29;;;;;;;1.15;0.80;;;20.20;52.40;;;;;;5079949;28;20040;-67
2024/02/25 09:43:56;;;;;;;1.45;0.90;;;20.20;52.40;;;;;;5082493;28;20054;-66
2024/02/25 09:46:25;;;;;;;1.25;0.90;;;20.30;52.50;;;;;;5082181;28;20033;-66
2024/02/25 09:48:52;;;;;;;1.17;0.90;;;20.20;52.50;;;;;;5080431;28;20370;-67
2024/02/25 09:51:23;;;;;;;1.33;0.82;;;20.20;52.60;;;;;;5081139;28;20411;-66
2024/02/25 09:53:50;;;;;;;1.50;1.02;;;20.20;52.60;;;;;;5079078;28;20086;-67
2024/02/25 09:56:22;;;;;;;1.70;0.82;;;20.20;53.00;;;;;;5080406;28;20417;-63
2024/02/25 09:58:48;;;;;;;1.38;1.02;;;20.30;52.80;;;;;;5079447;28;20373;-66
2024/02/25 10:01:14;;;;;;;1.75;1.05;;;20.20;52.70;;;;;;5063537;28;20123;-66
2024/02/25 10:03:44;;;;;;;1.40;1.00;;;20.20;52.80;;;;;;5079533;28;20028;-67
2024/02/25 10:06:10;;;;;;;1.85;1.02;;;20.20;52.80;;;;;;5080649;28;20079;-64
2024/02/25 10:08:51;;;;;;;1.75;1.10;;;20.20;52.80;;;;;;5080454;28;20953;-66
2024/02/25 10:11:17;;;;;;;1.73;1.00;;;20.20;52.80;;;;;;5078827;28;20028;-67
2024/02/25 10:13:45;;;;;;;1.33;0.95;;;20.20;52.80;;;;;;5078550;28;20024;-66
2024/02/25 10:16:15;;;;;;;1.67;0.95;;;20.20;52.80;;;;;;5079760;28;20444;-66
2024/02/25 10:18:41;;;;;;;1.65;1.00;;;20.20;52.80;;;;;;5079375;28;20028;-66
2024/02/25 10:21:07;;;;;;;1.35;1.00;;;20.20;52.80;;;;;;5080320;28;20442;-66
2024/02/25 10:23:36;;;;;;;1.77;1.10;;;20.20;52.90;;;;;;5078005;28;20078;-67
2024/02/25 10:26:19;;;;;;;1.38;0.90;;;20.20;52.90;;;;;;5077774;28;20898;-66
2024/02/25 10:28:46;;;;;;;2.88;1.00;;;20.20;52.90;;;;;;5079436;28;20039;-67
2024/02/25 10:31:16;;;;;;;1.60;1.00;;;20.20;52.90;;;;;;5078726;28;20119;-66
2024/02/25 10:33:43;;;;;;;1.83;0.98;;;20.20;52.90;;;;;;5077609;28;20417;-67
2024/02/25 10:36:13;;;;;;;1.60;0.98;;;20.20;52.90;;;;;;5078071;28;20480;-66
2024/02/25 10:38:40;;;;;;;1.52;1.08;;;20.20;53.40;;;;;;5079069;28;20556;-62
2024/02/25 10:41:07;;;;;;;1.30;1.00;;;20.20;52.90;;;;;;5078104;28;20475;-61
2024/02/25 10:43:34;;;;;;;1.63;1.00;;;20.20;52.90;;;;;;5080700;28;20107;-62
2024/02/25 10:46:04;;;;;;;1.00;0.90;;;20.20;52.90;;;;;;5080037;28;20500;-63
2024/02/25 10:48:31;;;;;;;1.40;0.98;;;20.20;52.90;;;;;;5080735;28;20028;-64
2024/02/25 10:50:58;;;;;;;1.40;0.90;;;20.20;52.90;;;;;;5069436;28;20496;-64
2024/02/25 10:53:28;;;;;;;2.15;1.17;;;20.20;52.90;;;;;;5079421;28;20082;-63
2024/02/25 10:55:57;;;;;;;1.60;1.00;;;20.20;52.90;;;;;;5077252;28;20547;-62
2024/02/25 10:58:25;;;;;;;1.20;0.90;;;20.20;52.90;;;;;;5081093;28;20542;-61
2024/02/25 11:00:52;;;;;;;1.30;0.80;;;20.20;53.00;;;;;;5077164;28;20373;-63
2024/02/25 11:03:19;;;;;;;2.03;0.80;;;20.20;53.00;;;;;;5078228;28;20029;-61
2024/02/25 11:05:45;;;;;;;1.65;0.98;;;20.20;53.00;;;;;;5078313;28;20017;-61
2024/02/25 11:08:11;;;;;;;1.90;1.00;;;20.20;53.00;;;;;;5094656;28;20550;-66
2024/02/25 11:10:37;;;;;;;1.60;1.00;;;20.20;53.00;;;;;;5079869;28;20066;-66
2024/02/25 11:13:03;;;;;;;1.10;0.80;;;20.20;53.00;;;;;;5078826;28;20037;-66
2024/02/25 11:15:32;;;;;;;1.17;0.90;;;20.20;53.20;;;;;;5078370;28;20099;-66
2024/02/25 11:18:00;;;;;;;1.23;0.90;;;20.20;53.00;;;;;;5076016;28;20493;-65
2024/02/25 11:20:28;;;;;;;1.42;1.00;;;20.30;53.20;;;;;;5079668;28;20531;-66
2024/02/25 11:22:55;;;;;;;1.48;0.80;;;20.30;53.10;;;;;;5059941;28;20115;-66
2024/02/25 11:25:26;;;;;;;1.70;0.90;;;20.40;53.00;;;;;;5076298;28;20412;-66
2024/02/25 11:28:22;;;;;;;1.60;0.90;;;20.40;53.00;;;;;;5077740;28;20381;-65
2024/02/25 11:30:49;;;;;;;1.52;0.90;;;20.40;53.10;;;;;;5073003;28;20520;-66
2024/02/25 11:33:25;;;;;;;1.75;0.90;;;20.50;53.10;;;;;;5079320;28;20103;-66
2024/02/25 11:35:54;;;;;;;1.30;0.77;;;20.50;53.10;;;;;;5059620;28;20029;-66
2024/02/25 11:38:27;;;;;;;1.15;0.90;;;20.60;53.00;;;;;;5076989;28;20032;-66
2024/02/25 11:40:54;;;;;;;1.15;0.88;;;20.60;53.00;;;;;;5076926;28;20123;-66
2024/02/25 11:43:20;;;;;;;1.77;0.90;;;20.60;53.00;;;;;;5077742;28;20050;-66
2024/02/25 11:45:46;;;;;;;1.00;0.80;;;20.60;53.10;;;;;;5080185;28;20114;-66
2024/02/25 11:48:12;;;;;;;1.30;0.90;;;20.70;53.00;;;;;;5078441;28;20024;-63
2024/02/25 11:50:38;;;;;;;1.67;0.95;;;20.70;53.50;;;;;;5078751;28;20032;-63
2024/02/25 11:53:04;;;;;;;1.30;0.77;;;20.70;52.90;;;;;;5077851;28;20028;-63
2024/02/25 11:55:30;;;;;;;1.02;0.80;;;20.70;52.80;;;;;;5078682;28;20028;-63
2024/02/25 11:57:55;;;;;;;1.25;0.80;;;20.80;52.90;;;;;;5077930;28;20070;-63
2024/02/25 12:00:22;;;;;;;1.25;0.90;;;20.80;52.80;;;;;;5077804;28;20028;-63
2024/02/25 12:02:49;;;;;;;1.35;0.77;;;20.80;52.70;;;;;;5077817;28;20056;-64
2024/02/25 12:05:15;;;;;;;1.50;0.90;;;20.90;52.70;;;;;;5078385;28;20054;-63
2024/02/25 12:07:43;;;;;;;1.70;0.98;;;20.90;52.70;;;;;;5078540;28;20540;-63
2024/02/25 12:10:10;;;;;;;0.77;0.70;;;20.90;52.60;;;;;;5076599;28;20024;-63
2024/02/25 12:12:36;;;;;;;0.82;0.75;;;21.00;52.70;;;;;;5077730;28;20020;-63
2024/02/25 12:15:02;;;;;;;1.05;0.73;;;21.00;52.60;;;;;;5077755;28;20025;-64
2024/02/25 12:17:27;;;;;;;1.30;0.80;;;21.00;52.60;;;;;;5078651;28;20021;-64
2024/02/25 12:19:55;;;;;;;1.30;0.73;;;21.00;52.50;;;;;;5079797;28;20043;-63
2024/02/25 12:22:25;;;;;;;1.05;0.80;;;21.10;52.50;;;;;;5076385;28;20108;-64
2024/02/25 12:24:52;;;;;;;;;;;21.10;52.50;;;;;;5078752;28;20039;-63
2024/02/25 12:27:21;;;;;;;1.60;0.80;;;21.10;52.50;;;;;;5078801;28;19952;-63
2024/02/25 12:29:50;;;;;;;2.17;0.80;;;21.20;52.40;;;;;;5078651;28;20029;-64
2024/02/25 12:32:17;;;;;;;1.05;0.82;;;21.20;52.50;;;;;;5076039;28;20510;-64
2024/02/25 12:34:44;;;;;;;1.20;0.80;;;21.20;52.40;;;;;;5078361;28;20443;-63
2024/02/25 12:37:13;;;;;;;0.90;0.70;;;21.20;52.40;;;;;;5077371;28;20020;-64
2024/02/25 12:39:40;;;;;;;1.15;0.70;;;21.20;52.40;;;;;;5077841;28;20039;-64
2024/02/25 12:42:06;;;;;;;1.33;0.80;;;21.20;52.30;;;;;;5076422;28;20452;-63
2024/02/25 12:44:33;;;;;;;1.35;0.90;;;21.30;52.30;;;;;;5077950;28;20031;-63